Time;durP1;ratioP1;P1;durP2;ratioP2;P2;SDS_P1;SDS_P2;PMS_P1;PMS_P2;Temp;Humidity;BMP_temperature;BMP_pressure;BME280_temperature;BME280_humidity;BME280_pressure;Samples;Min_cycle;Max_cycle;Signal;HPM_P1;HPM_P2
2022/03/23 00:01:55;;;;;;;19.30;12.07;;;8.20;83.20;;;;;;5113477;28;20019;-47
2022/03/23 00:04:21;;;;;;;24.20;12.82;;;8.10;83.90;;;;;;5113096;28;20024;-46
2022/03/23 00:06:47;;;;;;;15.68;11.20;;;8.00;84.20;;;;;;5112485;28;20025;-47
2022/03/23 00:09:14;;;;;;;18.65;11.63;;;7.90;85.00;;;;;;5112993;28;20493;-45
2022/03/23 00:11:40;;;;;;;16.17;10.88;;;7.80;84.70;;;;;;5112907;28;20389;-47
2022/03/23 00:14:06;;;;;;;17.23;11.02;;;7.80;85.10;;;;;;5112975;28;20489;-48
2022/03/23 00:16:35;;;;;;;14.70;10.65;;;7.80;85.40;;;;;;5112561;28;20094;-47
2022/03/23 00:19:00;;;;;;;14.82;10.13;;;7.70;85.80;;;;;;5111757;28;20077;-49
2022/03/23 00:21:26;;;;;;;17.15;10.80;;;7.70;86.10;;;;;;5094150;28;20050;-49
2022/03/23 00:23:51;;;;;;;16.15;10.20;;;7.70;86.00;;;;;;5112862;28;20031;-43
2022/03/23 00:26:17;;;;;;;18.77;12.05;;;7.70;86.90;;;;;;5112421;28;20036;-45
2022/03/23 00:28:42;;;;;;;13.40;10.05;;;7.70;87.10;;;;;;5094100;28;20081;-45
2022/03/23 00:31:09;;;;;;;21.38;9.93;;;7.80;87.20;;;;;;5112658;28;20077;-46
2022/03/23 00:33:35;;;;;;;15.27;11.63;;;7.80;86.80;;;;;;5112164;28;20024;-44
2022/03/23 00:36:01;;;;;;;17.25;11.18;;;7.80;87.00;;;;;;5112172;28;20470;-46
2022/03/23 00:38:26;;;;;;;19.20;10.85;;;7.80;87.40;;;;;;5112119;28;20084;-45
2022/03/23 00:40:52;;;;;;;18.38;12.45;;;7.70;85.60;;;;;;5112384;28;20080;-48
2022/03/23 00:43:17;;;;;;;13.57;10.82;;;7.70;85.10;;;;;;5094066;28;20020;-44
2022/03/23 00:45:43;;;;;;;16.73;11.70;;;7.70;85.00;;;;;;5093883;28;20471;-45
2022/03/23 00:48:09;;;;;;;20.48;10.90;;;7.60;85.00;;;;;;5111976;28;20032;-48
2022/03/23 00:50:34;;;;;;;21.73;11.32;;;7.60;85.00;;;;;;5111920;28;20039;-46
2022/03/23 00:53:00;;;;;;;27.15;11.85;;;7.60;85.00;;;;;;5112287;28;20106;-47
2022/03/23 00:55:25;;;;;;;14.05;9.85;;;7.60;84.30;;;;;;5093896;28;20060;-44
2022/03/23 00:57:51;;;;;;;20.10;10.85;;;7.60;84.20;;;;;;5111807;28;20051;-47
2022/03/23 01:00:20;;;;;;;15.02;10.48;;;7.60;84.50;;;;;;5112260;28;20213;-45
2022/03/23 01:02:46;;;;;;;13.27;9.30;;;7.60;84.20;;;;;;5112100;28;20011;-47
2022/03/23 01:05:12;;;;;;;18.42;10.60;;;7.60;84.20;;;;;;5111646;28;20020;-47
2022/03/23 01:07:39;;;;;;;19.98;10.02;;;7.50;84.40;;;;;;5111805;28;20401;-46
2022/03/23 01:10:06;;;;;;;18.60;10.95;;;7.40;84.80;;;;;;5112002;28;20028;-46
2022/03/23 01:12:32;;;;;;;18.67;10.50;;;7.30;84.90;;;;;;5111983;28;20035;-45
2022/03/23 01:14:58;;;;;;;14.48;9.93;;;7.20;85.10;;;;;;5111640;28;20035;-45
2022/03/23 01:17:24;;;;;;;20.83;11.57;;;7.10;85.70;;;;;;5111423;28;20035;-44
2022/03/23 01:19:51;;;;;;;23.40;10.60;;;7.00;85.90;;;;;;5111856;28;20019;-48
2022/03/23 01:22:17;;;;;;;18.33;11.13;;;7.00;85.60;;;;;;5094067;28;20028;-44
2022/03/23 01:24:43;;;;;;;19.40;11.25;;;7.00;85.70;;;;;;5111839;28;20398;-44
2022/03/23 01:27:09;;;;;;;17.08;11.15;;;6.90;86.10;;;;;;5092877;28;20028;-44
2022/03/23 01:29:35;;;;;;;24.05;11.38;;;6.80;86.20;;;;;;5113691;28;20505;-45
2022/03/23 01:32:00;;;;;;;15.60;10.65;;;6.70;86.60;;;;;;5115973;28;20063;-45
2022/03/23 01:34:26;;;;;;;19.50;11.38;;;6.70;86.40;;;;;;5115882;28;20035;-44
2022/03/23 01:36:51;;;;;;;17.75;10.88;;;6.70;86.60;;;;;;5097339;28;20497;-45
2022/03/23 01:39:17;;;;;;;21.33;11.50;;;6.70;86.40;;;;;;5115565;28;20056;-46
2022/03/23 01:41:42;;;;;;;13.77;9.93;;;6.70;86.40;;;;;;5115916;28;20019;-45
2022/03/23 01:44:17;;;;;;;18.02;11.77;;;6.70;85.90;;;;;;5115898;28;20031;-48
2022/03/23 01:47:06;;;;;;;15.70;10.88;;;6.60;85.80;;;;;;5115623;28;20506;-48
2022/03/23 01:49:33;;;;;;;18.05;11.02;;;6.70;85.50;;;;;;5116264;28;20024;-44
2022/03/23 01:51:58;;;;;;;21.98;11.40;;;6.60;85.20;;;;;;5115948;28;20081;-44
2022/03/23 01:54:24;;;;;;;19.48;10.65;;;6.60;85.70;;;;;;5121336;22;20040;-48
2022/03/23 01:56:50;;;;;;;19.33;10.93;;;6.60;86.10;;;;;;5074703;28;20027;-45
2022/03/23 01:59:17;;;;;;;82.75;52.15;;;6.60;89.90;;;;;;5074753;28;20035;-49
2022/03/23 02:01:43;;;;;;;78.90;47.95;;;6.50;90.80;;;;;;5074878;28;20021;-46
2022/03/23 02:04:09;;;;;;;26.70;16.67;;;6.50;91.20;;;;;;5074714;28;20029;-50
2022/03/23 02:06:35;;;;;;;15.20;10.82;;;6.50;91.30;;;;;;5074959;28;20036;-46
2022/03/23 02:09:01;;;;;;;17.35;10.90;;;6.40;91.70;;;;;;5074637;28;20025;-44
2022/03/23 02:11:27;;;;;;;13.60;9.70;;;6.30;91.80;;;;;;5074762;28;20072;-40
2022/03/23 02:13:53;;;;;;;19.35;10.55;;;6.30;91.90;;;;;;5074614;28;20537;-50
2022/03/23 02:16:19;;;;;;;14.02;10.13;;;6.30;91.70;;;;;;5074459;28;20036;-50
2022/03/23 02:18:45;;;;;;;14.15;10.50;;;6.30;92.20;;;;;;5074155;28;20069;-45
2022/03/23 02:21:14;;;;;;;17.73;10.60;;;6.30;92.10;;;;;;5074656;28;20119;-46
2022/03/23 02:23:40;;;;;;;24.67;11.25;;;6.30;91.60;;;;;;5074377;28;20100;-49
2022/03/23 02:26:06;;;;;;;21.65;12.63;;;6.30;91.40;;;;;;5056258;28;20512;-51
2022/03/23 02:28:32;;;;;;;17.75;11.10;;;6.40;90.20;;;;;;5074113;28;20051;-46
2022/03/23 02:30:58;;;;;;;18.45;11.90;;;6.50;88.80;;;;;;5074421;28;20016;-44
2022/03/23 02:33:24;;;;;;;22.48;11.43;;;6.50;87.80;;;;;;5074241;28;20040;-47
2022/03/23 02:35:49;;;;;;;26.48;11.93;;;6.50;86.70;;;;;;5074273;28;20033;-44
2022/03/23 02:38:16;;;;;;;18.98;10.63;;;6.50;86.60;;;;;;5073805;28;20082;-40
2022/03/23 02:40:42;;;;;;;18.20;10.90;;;6.50;87.00;;;;;;5073256;28;20025;-46
2022/03/23 02:43:08;;;;;;;20.40;10.68;;;6.50;87.10;;;;;;5074176;28;20303;-44
2022/03/23 02:45:34;;;;;;;20.42;11.65;;;6.50;87.90;;;;;;5056013;28;20417;-44
2022/03/23 02:47:59;;;;;;;16.58;11.57;;;6.50;87.60;;;;;;5073615;28;20491;-41
2022/03/23 02:50:26;;;;;;;21.60;11.13;;;6.40;87.90;;;;;;5073902;28;20031;-45
2022/03/23 03:04:10;;;;;;;20.35;11.48;;;6.30;88.90;;;;;;5073686;28;20028;-45
2022/03/23 03:06:35;;;;;;;16.65;11.13;;;6.30;88.80;;;;;;5073486;28;20024;-44
2022/03/23 03:09:01;;;;;;;21.55;11.43;;;6.30;88.60;;;;;;5072995;28;20104;-46
2022/03/23 03:11:26;;;;;;;18.17;11.20;;;6.30;88.90;;;;;;5073535;28;20586;-47
2022/03/23 03:13:52;;;;;;;18.15;11.95;;;6.30;88.90;;;;;;5073413;28;20588;-46
2022/03/23 03:16:18;;;;;;;17.27;10.98;;;6.30;88.90;;;;;;5073625;28;20040;-46
2022/03/23 03:18:44;;;;;;;18.85;11.32;;;6.30;88.90;;;;;;5073089;28;20100;-47
2022/03/23 03:21:11;;;;;;;14.55;10.90;;;6.30;89.60;;;;;;5073511;28;20095;-44
2022/03/23 03:23:37;;;;;;;16.50;11.50;;;6.30;90.10;;;;;;5073163;28;20487;-47
2022/03/23 03:26:05;;;;;;;15.52;10.98;;;6.30;90.10;;;;;;5073186;28;20025;-46
2022/03/23 03:28:35;;;;;;;15.98;10.55;;;6.20;90.10;;;;;;5072914;28;20479;-47
2022/03/23 03:31:05;;;;;;;15.48;11.52;;;6.20;90.20;;;;;;5073273;28;20086;-49
2022/03/23 03:33:31;;;;;;;17.48;11.23;;;6.10;90.30;;;;;;5073344;28;20099;-49
2022/03/23 03:35:57;;;;;;;19.33;11.80;;;6.10;90.00;;;;;;5073052;28;20103;-49
2022/03/23 03:38:22;;;;;;;19.00;10.70;;;6.10;90.10;;;;;;5072731;28;20025;-47
2022/03/23 03:40:48;;;;;;;23.92;11.73;;;6.00;89.50;;;;;;5055074;28;20108;-41
2022/03/23 03:43:15;;;;;;;19.70;11.32;;;6.10;90.10;;;;;;5072751;28;20042;-46
2022/03/23 03:45:41;;;;;;;18.95;12.07;;;6.10;90.10;;;;;;5072661;28;20024;-48
2022/03/23 03:48:07;;;;;;;21.77;11.70;;;6.10;89.70;;;;;;5072588;28;20028;-47
2022/03/23 03:50:34;;;;;;;16.40;11.32;;;6.10;90.30;;;;;;5072727;28;20031;-49
2022/03/23 03:53:00;;;;;;;23.58;11.20;;;6.00;90.30;;;;;;5072693;28;20060;-41
2022/03/23 03:55:26;;;;;;;20.65;13.15;;;6.00;90.40;;;;;;5072404;28;20075;-49
2022/03/23 03:57:51;;;;;;;15.57;12.10;;;6.00;90.30;;;;;;5072218;28;20537;-45
2022/03/23 04:00:17;;;;;;;19.05;11.85;;;5.90;90.70;;;;;;5072669;28;20074;-47
2022/03/23 04:02:43;;;;;;;24.30;11.82;;;5.80;90.80;;;;;;5072538;28;20182;-44
2022/03/23 04:05:09;;;;;;;17.23;11.77;;;5.80;90.90;;;;;;5072529;28;20014;-45
2022/03/23 04:07:35;;;;;;;27.27;11.65;;;5.80;91.10;;;;;;5072471;28;20029;-46
2022/03/23 04:10:02;;;;;;;19.13;11.88;;;5.80;91.30;;;;;;5071899;28;20103;-49
2022/03/23 04:12:28;;;;;;;25.65;11.95;;;5.80;91.50;;;;;;5072243;28;20031;-51
2022/03/23 04:14:53;;;;;;;21.63;11.57;;;5.80;91.40;;;;;;5072280;28;20024;-42
2022/03/23 04:17:19;;;;;;;24.35;12.02;;;5.70;91.80;;;;;;5071866;28;20399;-46
2022/03/23 04:19:44;;;;;;;19.77;11.75;;;5.60;91.90;;;;;;5072129;28;20048;-49
2022/03/23 04:22:10;;;;;;;20.75;12.20;;;5.50;92.10;;;;;;5072102;28;20096;-45
2022/03/23 04:24:35;;;;;;;24.90;10.57;;;5.40;92.10;;;;;;5071946;28;20021;-45
2022/03/23 04:27:01;;;;;;;20.05;12.40;;;5.30;92.20;;;;;;5072027;28;20489;-47
2022/03/23 04:29:27;;;;;;;19.23;12.02;;;5.30;92.40;;;;;;5072728;28;20032;-45
2022/03/23 04:31:53;;;;;;;18.50;12.95;;;5.30;92.40;;;;;;5072553;28;20055;-41
2022/03/23 04:34:18;;;;;;;20.45;11.90;;;5.20;92.70;;;;;;5072161;28;20024;-45
2022/03/23 04:36:44;;;;;;;18.83;12.88;;;5.30;92.60;;;;;;5072599;28;20501;-46
2022/03/23 04:39:09;;;;;;;18.33;11.82;;;5.30;92.70;;;;;;5072215;28;20028;-50
2022/03/23 04:41:35;;;;;;;21.40;12.65;;;5.20;92.70;;;;;;5071898;28;20027;-41
2022/03/23 04:44:00;;;;;;;18.38;12.65;;;5.20;92.90;;;;;;5071850;28;20392;-47
2022/03/23 04:46:26;;;;;;;20.52;12.80;;;5.30;93.10;;;;;;5071722;28;20099;-47
2022/03/23 04:48:52;;;;;;;17.88;12.50;;;5.20;93.20;;;;;;5071469;28;20071;-47
2022/03/23 04:51:17;;;;;;;17.45;11.68;;;5.10;93.10;;;;;;5071560;28;20032;-50
2022/03/23 04:53:43;;;;;;;21.02;13.63;;;5.10;93.20;;;;;;5071476;28;20024;-46
2022/03/23 04:56:08;;;;;;;21.38;12.98;;;5.00;93.20;;;;;;5053666;28;20043;-51
2022/03/23 04:58:34;;;;;;;16.02;11.40;;;4.90;93.30;;;;;;5053244;28;20020;-45
2022/03/23 05:01:00;;;;;;;21.27;11.57;;;4.80;93.20;;;;;;5071550;28;20082;-49
2022/03/23 05:03:26;;;;;;;17.13;11.52;;;4.80;93.50;;;;;;5071052;28;20483;-47
2022/03/23 05:05:52;;;;;;;24.05;11.45;;;4.70;93.60;;;;;;5071333;28;20024;-43
2022/03/23 05:08:18;;;;;;;25.80;12.05;;;4.70;93.50;;;;;;5070819;28;20078;-47
2022/03/23 05:10:43;;;;;;;14.73;10.65;;;4.70;93.60;;;;;;5071864;28;20028;-48
2022/03/23 05:13:10;;;;;;;20.13;11.85;;;4.70;93.60;;;;;;5071568;28;20031;-47
2022/03/23 05:15:36;;;;;;;19.80;12.07;;;4.70;93.70;;;;;;5071354;28;20024;-43
2022/03/23 05:18:03;;;;;;;16.98;11.13;;;4.70;93.70;;;;;;5071715;28;20495;-46
2022/03/23 05:20:29;;;;;;;25.77;11.90;;;4.70;93.70;;;;;;5072448;28;20073;-45
2022/03/23 05:22:54;;;;;;;19.95;12.20;;;4.70;93.70;;;;;;5071750;28;20111;-49
2022/03/23 05:25:21;;;;;;;15.93;11.43;;;4.70;93.80;;;;;;5071694;28;20479;-45
2022/03/23 05:27:47;;;;;;;22.88;12.88;;;4.70;93.80;;;;;;5071075;28;20044;-49
2022/03/23 05:30:13;;;;;;;19.90;11.98;;;4.70;93.70;;;;;;5071809;28;20035;-46
2022/03/23 05:32:40;;;;;;;19.67;11.55;;;4.80;93.50;;;;;;5071378;28;20480;-48
2022/03/23 05:35:08;;;;;;;17.92;12.02;;;4.80;93.50;;;;;;5071556;28;20609;-44
2022/03/23 05:37:33;;;;;;;15.20;11.45;;;4.80;93.60;;;;;;5071293;28;20020;-45
2022/03/23 05:40:01;;;;;;;20.20;12.57;;;4.90;93.90;;;;;;5071398;28;20025;-47
2022/03/23 05:42:26;;;;;;;17.95;10.75;;;5.00;93.90;;;;;;5071404;28;20025;-48
2022/03/23 05:44:52;;;;;;;17.70;11.38;;;5.20;93.70;;;;;;5071385;28;20020;-41
2022/03/23 05:47:17;;;;;;;19.45;11.57;;;5.50;92.80;;;;;;5070827;28;20483;-47
2022/03/23 05:49:43;;;;;;;24.98;11.73;;;5.80;91.80;;;;;;5071366;28;20543;-48
2022/03/23 05:52:08;;;;;;;20.75;11.70;;;6.10;91.00;;;;;;5071507;28;20025;-47
2022/03/23 05:54:34;;;;;;;15.38;10.45;;;6.40;90.30;;;;;;5071151;28;20044;-48
2022/03/23 05:57:02;;;;;;;15.85;10.90;;;6.70;90.10;;;;;;5052750;28;20054;-44
2022/03/23 05:59:29;;;;;;;19.05;12.15;;;6.80;89.30;;;;;;5071216;28;20092;-48
2022/03/23 06:01:54;;;;;;;20.38;12.15;;;6.90;88.60;;;;;;5053346;28;20029;-49
2022/03/23 06:04:21;;;;;;;25.17;12.68;;;6.90;89.00;;;;;;5070970;28;20032;-46
2022/03/23 06:06:46;;;;;;;15.77;12.00;;;6.90;90.20;;;;;;5070721;28;20099;-47
2022/03/23 06:09:12;;;;;;;18.02;12.38;;;6.80;90.40;;;;;;5070519;28;20052;-48
2022/03/23 06:11:39;;;;;;;23.77;12.23;;;6.90;90.50;;;;;;5071105;28;20020;-52
2022/03/23 06:14:04;;;;;;;17.10;12.15;;;7.10;90.40;;;;;;5053259;28;20349;-44
2022/03/23 06:16:30;;;;;;;20.95;12.35;;;7.20;90.20;;;;;;5072245;28;20029;-45
2022/03/23 06:18:55;;;;;;;17.45;11.43;;;7.00;90.20;;;;;;5074494;28;20051;-49
2022/03/23 06:21:22;;;;;;;19.02;10.85;;;7.00;90.30;;;;;;5074963;28;20020;-46
2022/03/23 06:23:47;;;;;;;19.48;12.13;;;7.10;90.20;;;;;;5074984;28;20506;-42
2022/03/23 06:26:12;;;;;;;21.58;11.32;;;7.30;90.00;;;;;;5074635;28;20033;-47
2022/03/23 06:28:38;;;;;;;24.67;12.25;;;7.50;88.90;;;;;;5056420;28;20024;-45
2022/03/23 06:31:04;;;;;;;24.77;12.60;;;7.60;88.50;;;;;;5074731;28;20028;-46
2022/03/23 06:33:29;;;;;;;18.55;11.75;;;7.90;86.60;;;;;;5075933;28;20070;-46
2022/03/23 06:35:55;;;;;;;27.60;11.55;;;8.20;85.30;;;;;;5075544;28;20028;-44
2022/03/23 06:38:21;;;;;;;18.77;11.95;;;8.30;85.20;;;;;;5073967;28;20029;-47
2022/03/23 06:40:46;;;;;;;14.50;11.00;;;8.60;84.00;;;;;;5056334;28;20077;-46
2022/03/23 06:43:12;;;;;;;20.30;13.35;;;8.90;82.60;;;;;;5074339;28;20020;-46
2022/03/23 06:45:40;;;;;;;17.77;11.55;;;9.30;80.90;;;;;;5073837;28;20028;-47
2022/03/23 06:48:06;;;;;;;14.18;11.02;;;9.20;80.90;;;;;;5074026;28;20035;-42
2022/03/23 06:50:31;;;;;;;19.17;11.52;;;9.40;80.30;;;;;;5072648;28;20508;-43
2022/03/23 06:52:57;;;;;;;16.70;11.38;;;9.40;79.70;;;;;;5074164;28;20078;-47
2022/03/23 06:55:22;;;;;;;18.15;12.65;;;9.40;79.70;;;;;;5073968;28;20035;-46
2022/03/23 06:57:48;;;;;;;17.20;11.10;;;9.30;79.80;;;;;;5073696;28;20039;-53
2022/03/23 07:00:14;;;;;;;15.27;10.82;;;9.70;78.60;;;;;;5074270;28;20108;-46
2022/03/23 07:02:41;;;;;;;18.80;11.10;;;10.00;77.60;;;;;;5074094;28;20017;-42
2022/03/23 07:05:08;;;;;;;19.17;12.07;;;10.40;76.20;;;;;;5073818;28;20102;-47
2022/03/23 07:07:34;;;;;;;20.85;11.52;;;11.00;75.40;;;;;;5073390;28;20036;-48
2022/03/23 07:10:00;;;;;;;16.80;12.38;;;11.30;73.30;;;;;;5072993;28;20036;-47
2022/03/23 07:12:25;;;;;;;27.25;11.90;;;11.10;73.30;;;;;;5073784;28;20074;-50
2022/03/23 07:14:51;;;;;;;14.05;10.73;;;11.40;72.50;;;;;;5073481;28;20024;-52
2022/03/23 07:17:17;;;;;;;16.35;10.32;;;11.50;71.90;;;;;;5073032;28;20032;-47
2022/03/23 07:19:43;;;;;;;15.80;11.32;;;11.90;71.60;;;;;;5073398;28;20017;-42
2022/03/23 07:22:08;;;;;;;17.15;11.32;;;12.40;69.70;;;;;;5073384;28;20024;-48
2022/03/23 07:24:34;;;;;;;17.20;10.63;;;12.50;68.90;;;;;;5073394;28;20032;-47
2022/03/23 07:27:00;;;;;;;20.40;12.55;;;12.60;68.90;;;;;;5072787;28;20020;-51
2022/03/23 07:29:25;;;;;;;24.70;13.05;;;13.30;68.20;;;;;;5073278;28;20022;-47
2022/03/23 07:31:51;;;;;;;22.52;12.27;;;13.60;67.10;;;;;;5073319;28;20103;-42
2022/03/23 07:34:19;;;;;;;21.23;10.75;;;14.00;67.10;;;;;;5073487;28;20491;-49
2022/03/23 07:36:46;;;;;;;19.08;12.40;;;14.40;64.70;;;;;;5072843;28;20368;-49
2022/03/23 07:39:15;;;;;;;15.65;12.00;;;14.80;61.90;;;;;;5072985;28;20091;-46
2022/03/23 07:41:41;;;;;;;16.00;11.43;;;15.20;62.50;;;;;;5073097;28;20369;-45
2022/03/23 07:44:06;;;;;;;16.92;12.30;;;15.10;61.20;;;;;;5072900;28;20024;-47
2022/03/23 07:46:32;;;;;;;14.98;11.63;;;15.50;61.00;;;;;;5072766;28;20016;-52
2022/03/23 07:48:57;;;;;;;17.95;11.80;;;16.10;60.70;;;;;;5072935;28;20032;-47
2022/03/23 07:51:23;;;;;;;16.27;11.77;;;16.40;58.50;;;;;;5073255;28;20476;-49
2022/03/23 07:56:19;;;;;;;17.70;12.40;;;16.70;57.20;;;;;;5129939;22;20126;-43
2022/03/23 07:58:44;;;;;;;13.55;10.73;;;17.00;56.50;;;;;;5112349;28;20111;-47
2022/03/23 08:01:10;;;;;;;17.95;11.23;;;16.90;56.20;;;;;;5112992;28;20015;-47
2022/03/23 08:03:35;;;;;;;14.18;11.63;;;16.40;56.50;;;;;;5112976;28;20502;-46
2022/03/23 08:06:01;;;;;;;16.92;12.02;;;15.60;57.90;;;;;;5094455;28;20024;-48
2022/03/23 08:08:27;;;;;;;17.63;12.60;;;14.80;58.90;;;;;;5112227;28;20023;-47
2022/03/23 08:10:52;;;;;;;15.68;12.35;;;14.10;60.50;;;;;;5113305;28;20412;-43
2022/03/23 08:13:19;;;;;;;19.70;13.23;;;13.60;61.40;;;;;;5112962;28;20023;-48
2022/03/23 08:15:44;;;;;;;19.83;14.10;;;12.70;64.10;;;;;;5112797;28;20016;-46
2022/03/23 08:18:10;;;;;;;24.08;14.13;;;12.20;64.90;;;;;;5112364;28;20087;-46
2022/03/23 08:20:35;;;;;;;18.20;12.82;;;11.90;66.90;;;;;;5112836;28;20111;-45
2022/03/23 08:23:04;;;;;;;20.05;13.93;;;11.50;68.20;;;;;;5112701;28;20094;-47
2022/03/23 08:25:30;;;;;;;20.08;14.40;;;11.20;69.00;;;;;;5112615;28;20401;-45
2022/03/23 08:27:56;;;;;;;17.60;13.60;;;11.20;69.60;;;;;;5112201;28;20028;-46
2022/03/23 08:30:22;;;;;;;18.27;14.85;;;11.00;69.50;;;;;;5112324;28;20027;-46
2022/03/23 08:32:47;;;;;;;20.17;14.70;;;10.90;70.60;;;;;;5112463;28;20176;-44
2022/03/23 08:35:13;;;;;;;36.55;24.05;;;10.80;70.80;;;;;;5112349;28;20024;-46
2022/03/23 08:37:38;;;;;;;25.00;17.13;;;10.70;71.40;;;;;;5112022;28;20028;-46
2022/03/23 08:40:05;;;;;;;18.45;12.90;;;10.70;71.60;;;;;;5111650;28;20043;-42
2022/03/23 08:42:30;;;;;;;16.85;13.57;;;10.70;71.90;;;;;;5093819;28;20023;-49
2022/03/23 08:44:56;;;;;;;22.90;14.70;;;10.70;73.00;;;;;;5111536;28;20028;-46
2022/03/23 08:47:23;;;;;;;22.00;14.38;;;10.70;72.20;;;;;;5101354;28;20428;-47
2022/03/23 08:49:48;;;;;;;27.38;15.43;;;10.70;72.00;;;;;;5101373;28;20016;-47
2022/03/23 08:52:14;;;;;;;20.95;14.48;;;10.70;72.10;;;;;;5102209;28;20027;-48
2022/03/23 08:54:39;;;;;;;21.38;14.80;;;10.70;72.20;;;;;;5100296;28;20032;-45
2022/03/23 08:57:05;;;;;;;20.75;15.05;;;10.70;72.80;;;;;;5101791;28;20023;-47
2022/03/23 08:59:31;;;;;;;23.85;15.02;;;10.80;72.50;;;;;;5101752;28;20050;-45
2022/03/23 09:01:58;;;;;;;20.15;14.68;;;11.00;72.80;;;;;;5100375;28;20039;-43
2022/03/23 09:04:23;;;;;;;27.77;14.43;;;12.00;71.00;;;;;;5102338;28;20018;-45
2022/03/23 09:06:49;;;;;;;19.33;13.60;;;13.20;68.90;;;;;;5101261;28;20394;-46
2022/03/23 09:09:15;;;;;;;17.80;14.35;;;14.80;64.80;;;;;;5079614;28;20028;-46
2022/03/23 09:11:43;;;;;;;19.27;13.95;;;16.10;62.10;;;;;;5091039;28;20116;-44
2022/03/23 09:14:12;;;;;;;24.38;13.15;;;17.30;59.30;;;;;;5091314;28;20423;-45
2022/03/23 09:16:38;;;;;;;22.45;13.18;;;18.10;57.20;;;;;;5091076;28;20550;-47
2022/03/23 09:19:05;;;;;;;22.42;13.40;;;18.40;56.20;;;;;;5091312;28;20032;-47
2022/03/23 09:21:31;;;;;;;21.52;12.63;;;19.00;55.30;;;;;;5091700;28;20048;-46
2022/03/23 09:23:56;;;;;;;20.33;13.32;;;19.70;54.50;;;;;;5091634;28;20444;-47
2022/03/23 09:26:22;;;;;;;25.75;13.45;;;20.30;53.80;;;;;;5073505;28;20052;-46
2022/03/23 09:28:51;;;;;;;19.58;13.15;;;20.60;52.40;;;;;;5091140;28;20107;-44
2022/03/23 09:31:17;;;;;;;17.10;13.63;;;21.20;50.90;;;;;;5091657;28;20079;-47
2022/03/23 09:33:43;;;;;;;16.08;13.38;;;21.40;50.30;;;;;;5073532;28;20475;-45
2022/03/23 09:37:47;;;;;;;14.82;13.10;;;21.50;49.30;;;;;;5091392;28;20028;-43
2022/03/23 09:38:54;;;;;;;17.92;13.10;;;21.70;49.00;;;;;;5091157;28;20147;-47
2022/03/23 09:41:20;;;;;;;19.85;14.15;;;21.60;49.20;;;;;;5091297;28;20566;-45
2022/03/23 09:43:46;;;;;;;26.80;14.18;;;21.10;49.50;;;;;;5091442;28;20078;-47
2022/03/23 09:46:12;;;;;;;22.15;13.77;;;20.70;49.60;;;;;;5091036;28;20119;-45
2022/03/23 09:48:38;;;;;;;19.63;14.07;;;20.30;50.10;;;;;;5091044;28;20056;-49
2022/03/23 09:51:05;;;;;;;16.90;14.00;;;20.10;50.30;;;;;;5094443;28;20507;-44
2022/03/23 09:53:33;;;;;;;19.05;13.50;;;19.60;51.10;;;;;;5095635;28;20020;-44
2022/03/23 09:55:58;;;;;;;18.08;12.82;;;19.50;51.30;;;;;;5094717;28;20051;-43
2022/03/23 09:58:24;;;;;;;26.88;12.52;;;19.00;49.60;;;;;;5094711;28;20060;-46
2022/03/23 10:00:50;;;;;;;17.38;11.82;;;18.80;50.00;;;;;;5095300;28;20017;-42
2022/03/23 10:03:54;;;;;;;17.73;12.02;;;18.40;50.00;;;;;;5094995;28;20313;-43
2022/03/23 10:06:42;;;;;;;22.10;13.68;;;18.20;50.50;;;;;;5094623;28;20032;-46
2022/03/23 10:09:41;;;;;;;18.35;12.40;;;18.00;51.30;;;;;;5094134;28;20028;-43
2022/03/23 10:12:40;;;;;;;24.35;12.13;;;18.30;51.10;;;;;;5094668;28;20032;-46
2022/03/23 10:16:11;;;;;;;16.35;12.35;;;18.00;50.70;;;;;;5094768;28;20058;-47
2022/03/23 10:18:58;;;;;;;80.32;52.38;;;17.90;49.70;;;;;;5076184;28;20039;-45
2022/03/23 10:21:32;;;;;;;19.52;12.50;;;18.20;50.40;;;;;;5095036;28;20020;-47
2022/03/23 10:23:58;;;;;;;15.43;12.30;;;18.20;50.80;;;;;;5094607;28;20410;-47
2022/03/23 10:26:24;;;;;;;18.70;12.60;;;18.40;51.10;;;;;;5094303;28;20020;-43
2022/03/23 10:28:49;;;;;;;16.23;12.43;;;18.40;50.10;;;;;;5094201;28;20024;-48
2022/03/23 10:31:17;;;;;;;17.63;12.50;;;18.00;50.80;;;;;;5094632;28;20442;-44
2022/03/23 10:33:43;;;;;;;13.35;11.20;;;17.90;51.00;;;;;;5094094;28;20081;-45
2022/03/23 10:36:08;;;;;;;17.55;12.13;;;17.90;51.30;;;;;;5094264;28;20074;-47
2022/03/23 10:38:39;;;;;;;21.65;11.88;;;18.00;51.40;;;;;;5094454;28;20430;-47
2022/03/23 10:41:11;;;;;;;17.70;12.77;;;18.00;50.60;;;;;;5076141;28;20054;-43
2022/03/23 10:43:38;;;;;;;17.02;13.10;;;18.10;51.20;;;;;;5094327;28;20076;-45
2022/03/23 10:46:09;;;;;;;13.60;10.55;;;18.10;51.20;;;;;;5094158;28;20245;-45
2022/03/23 10:48:35;;;;;;;14.18;10.95;;;17.60;48.10;;;;;;5093899;28;20072;-47
2022/03/23 10:51:00;;;;;;;15.88;11.85;;;17.60;48.40;;;;;;5094055;28;20436;-45
2022/03/23 10:53:40;;;;;;;14.27;10.98;;;17.60;48.80;;;;;;5094102;28;20146;-44
2022/03/23 10:56:06;;;;;;;13.18;11.18;;;17.60;49.40;;;;;;5093858;28;20074;-46
2022/03/23 10:58:34;;;;;;;13.95;10.02;;;17.60;49.50;;;;;;5093645;28;20078;-45
2022/03/23 11:01:05;;;;;;;13.50;10.15;;;17.60;47.30;;;;;;5093985;28;20027;-46
2022/03/23 11:03:43;;;;;;;13.90;10.68;;;17.70;48.40;;;;;;5093703;28;20020;-43
2022/03/23 11:06:11;;;;;;;14.43;10.98;;;17.70;49.30;;;;;;5093575;28;20012;-47
2022/03/23 11:08:37;;;;;;;14.45;10.35;;;17.50;47.50;;;;;;5093482;28;20483;-44
2022/03/23 11:16:46;;;;;;;14.45;10.45;;;17.30;46.60;;;;;;5093750;28;20024;-43
2022/03/23 11:19:15;;;;;;;15.50;10.15;;;17.30;46.60;;;;;;5093420;28;20035;-44
2022/03/23 11:22:06;;;;;;;16.67;11.93;;;17.20;46.50;;;;;;5093724;28;20016;-46
2022/03/23 11:24:34;;;;;;;12.82;10.15;;;17.30;44.60;;;;;;5093384;28;20077;-46
2022/03/23 11:27:00;;;;;;;19.42;10.05;;;17.20;44.90;;;;;;5093001;28;20024;-49
2022/03/23 11:29:26;;;;;;;13.65;10.90;;;17.10;45.30;;;;;;5093325;28;20024;-44
2022/03/23 11:31:53;;;;;;;18.58;11.45;;;17.00;46.50;;;;;;5093100;28;20511;-44
2022/03/23 11:34:21;;;;;;;13.07;10.55;;;17.00;47.10;;;;;;5093224;28;20035;-47
2022/03/23 11:36:50;;;;;;;14.10;10.10;;;17.00;47.20;;;;;;5092856;28;20035;-46
2022/03/23 11:39:16;;;;;;;32.17;19.58;;;16.90;47.40;;;;;;5092957;28;20109;-44
2022/03/23 11:41:43;;;;;;;13.13;11.73;;;16.90;47.70;;;;;;5092906;28;20503;-45
2022/03/23 11:44:13;;;;;;;17.27;11.23;;;17.00;47.30;;;;;;5093133;28;20050;-46
2022/03/23 11:46:39;;;;;;;14.88;10.57;;;17.00;48.60;;;;;;5093027;28;20021;-43
2022/03/23 11:49:29;;;;;;;13.75;11.07;;;17.00;47.20;;;;;;5093167;28;20027;-44
2022/03/23 11:52:18;;;;;;;13.85;10.95;;;17.00;46.40;;;;;;5092898;28;20062;-44
2022/03/23 11:57:49;;;;;;;19.58;10.65;;;16.90;47.60;;;;;;5092505;28;20062;-46
2022/03/23 12:00:19;;;;;;;11.18;9.93;;;17.00;47.40;;;;;;5093035;28;20074;-44
2022/03/23 12:02:44;;;;;;;13.10;10.63;;;17.00;47.30;;;;;;5092773;28;20479;-44
2022/03/23 12:05:35;;;;;;;11.98;10.75;;;17.00;47.10;;;;;;5093034;28;20024;-48
2022/03/23 12:08:01;;;;;;;13.10;10.45;;;17.10;45.80;;;;;;5091906;28;20028;-47
2022/03/23 12:10:29;;;;;;;17.50;10.60;;;17.00;46.60;;;;;;5092625;28;20483;-44
2022/03/23 12:12:55;;;;;;;13.23;9.95;;;17.10;47.70;;;;;;5092138;28;20024;-47
2022/03/23 12:15:23;;;;;;;15.25;10.00;;;17.10;48.50;;;;;;5091857;28;20020;-50
2022/03/23 12:17:59;;;;;;;10.77;9.68;;;17.10;49.00;;;;;;5092147;28;20024;-50
2022/03/23 12:20:41;;;;;;;13.13;11.00;;;17.20;49.30;;;;;;5092552;28;20252;-48
2022/03/23 12:23:10;;;;;;;19.83;11.35;;;17.30;48.30;;;;;;5092516;28;20024;-44
2022/03/23 12:25:40;;;;;;;16.20;10.65;;;17.50;47.30;;;;;;5092787;28;20020;-44
2022/03/23 12:28:32;;;;;;;13.32;10.05;;;17.50;47.10;;;;;;5074298;28;20103;-46
2022/03/23 12:30:58;;;;;;;16.98;10.43;;;17.50;47.70;;;;;;5091922;28;20024;-46
2022/03/23 12:33:26;;;;;;;19.23;10.27;;;17.50;48.20;;;;;;5092339;28;20024;-49
2022/03/23 12:35:57;;;;;;;14.52;11.32;;;17.60;47.90;;;;;;5092956;28;20522;-46
2022/03/23 12:38:26;;;;;;;17.20;12.95;;;17.60;49.00;;;;;;5091798;28;20081;-47
2022/03/23 12:40:51;;;;;;;15.80;11.52;;;17.60;49.20;;;;;;5092442;28;20252;-48
2022/03/23 12:43:39;;;;;;;19.58;11.70;;;17.70;48.30;;;;;;5092166;28;20077;-49
2022/03/23 12:46:19;;;;;;;17.02;12.15;;;17.70;49.10;;;;;;5092094;28;20044;-43
2022/03/23 12:57:50;;;;;;;16.25;12.05;;;17.50;47.30;;;;;;5091962;28;20027;-48
2022/03/23 13:00:31;;;;;;;16.13;11.63;;;17.50;48.30;;;;;;5073576;28;20030;-43
2022/03/23 13:03:06;;;;;;;19.40;12.18;;;17.80;49.40;;;;;;5091576;28;20103;-47
2022/03/23 13:05:58;;;;;;;18.55;12.63;;;17.90;48.30;;;;;;5091797;28;20103;-45
2022/03/23 13:08:27;;;;;;;16.70;10.98;;;18.00;48.80;;;;;;5090879;28;20049;-45